createdAt,value
2024-04-14T00:01:42.368Z,146.40
2024-04-14T00:04:12.226Z,152.50
2024-04-14T00:06:39.112Z,148.63
2024-04-14T00:09:09.340Z,149.35
2024-04-14T00:11:38.703Z,143.40
2024-04-14T00:14:08.985Z,149.13
2024-04-14T00:16:35.953Z,157.82
2024-04-14T00:19:05.441Z,156.23
2024-04-14T00:21:33.036Z,151.85
2024-04-14T00:24:02.494Z,156.27
2024-04-14T00:26:29.252Z,157.02
2024-04-14T00:29:06.047Z,152.32
2024-04-14T00:31:33.939Z,146.77
2024-04-14T00:34:03.601Z,154.10
2024-04-14T00:36:30.422Z,149.32
2024-04-14T00:39:00.164Z,143.55
2024-04-14T00:41:26.923Z,141.18
2024-04-14T00:43:56.460Z,148.57
2024-04-14T00:46:26.392Z,140.50
2024-04-14T00:48:55.946Z,132.27
2024-04-14T00:51:24.466Z,124.43
2024-04-14T00:53:54.322Z,113.35
2024-04-14T00:56:22.668Z,116.72
2024-04-14T00:58:52.169Z,119.22
2024-04-14T01:01:21.764Z,103.47
2024-04-14T01:03:54.175Z,114.07
2024-04-14T01:06:21.208Z,105.88
2024-04-14T01:08:50.958Z,110.75
2024-04-14T01:11:17.819Z,98.75
2024-04-14T01:13:49.648Z,100.60
2024-04-14T01:16:16.684Z,97.15
2024-04-14T01:18:46.312Z,97.60
2024-04-14T01:21:16.446Z,101.82
2024-04-14T01:23:45.802Z,104.47
2024-04-14T01:26:16.090Z,102.32
2024-04-14T01:28:45.471Z,101.55
2024-04-14T01:31:12.329Z,113.28
2024-04-14T01:33:42.389Z,105.22
2024-04-14T01:36:09.256Z,105.25
2024-04-14T01:38:38.632Z,108.53
2024-04-14T01:41:05.677Z,116.97
2024-04-14T01:43:37.747Z,115.40
2024-04-14T01:46:05.149Z,113.45
2024-04-14T01:48:35.479Z,111.53
2024-04-14T01:51:02.550Z,115.85
2024-04-14T01:53:31.904Z,118.45
2024-04-14T01:55:58.949Z,108.47
2024-04-14T01:58:28.339Z,109.97
2024-04-14T02:00:57.825Z,111.15
2024-04-14T02:03:27.615Z,111.50
2024-04-14T02:05:57.896Z,113.75
2024-04-14T02:08:27.517Z,115.63
2024-04-14T02:10:54.421Z,108.65
2024-04-14T02:13:24.038Z,114.72
2024-04-14T02:15:50.816Z,116.25
2024-04-14T02:18:23.226Z,117.97
2024-04-14T02:20:50.088Z,130.93
2024-04-14T02:23:20.308Z,129.02
2024-04-14T02:25:54.817Z,134.20
2024-04-14T02:28:24.245Z,121.10
2024-04-14T02:30:51.743Z,133.45
2024-04-14T02:33:23.774Z,128.98
2024-04-14T02:35:55.101Z,126.00
2024-04-14T02:38:24.546Z,120.25
2024-04-14T02:40:58.861Z,123.60
2024-04-14T02:43:30.210Z,115.40
2024-04-14T02:45:57.871Z,105.22
2024-04-14T02:48:31.204Z,110.53
2024-04-14T02:50:58.295Z,109.50
2024-04-14T02:53:28.349Z,102.15
2024-04-14T02:55:55.123Z,98.00
2024-04-14T02:58:24.636Z,96.18
2024-04-14T03:00:59.661Z,95.38
2024-04-14T03:03:31.974Z,92.35
2024-04-14T03:06:01.863Z,101.43
2024-04-14T03:08:31.628Z,95.38
2024-04-14T03:10:59.338Z,100.82
2024-04-14T03:13:29.150Z,97.68
2024-04-14T03:15:56.103Z,92.30
2024-04-14T03:18:26.119Z,97.70
2024-04-14T03:21:00.196Z,100.35
2024-04-14T03:23:30.435Z,101.68
2024-04-14T03:25:57.688Z,106.28
2024-04-14T03:28:28.148Z,106.05
2024-04-14T03:30:59.968Z,94.65
2024-04-14T03:33:30.303Z,104.75
2024-04-14T03:36:04.526Z,108.15
2024-04-14T03:38:34.388Z,106.32
2024-04-14T03:41:04.275Z,107.20
2024-04-14T03:43:33.725Z,112.28
2024-04-14T03:46:03.928Z,121.55
2024-04-14T03:48:33.533Z,119.53
2024-04-14T03:51:00.574Z,127.97
2024-04-14T03:53:32.531Z,131.68
2024-04-14T03:55:59.301Z,130.07
2024-04-14T03:58:28.956Z,130.50
2024-04-14T04:00:56.451Z,123.28
2024-04-14T04:03:27.278Z,114.43
2024-04-14T04:05:55.560Z,115.03
2024-04-14T04:08:25.686Z,111.05
2024-04-14T04:11:03.603Z,110.32
2024-04-14T04:13:33.419Z,115.40
2024-04-14T04:16:01.197Z,106.20
2024-04-14T04:18:31.430Z,100.95
2024-04-14T04:21:00.888Z,91.57
2024-04-14T04:23:30.596Z,95.22
2024-04-14T04:26:01.812Z,89.15
2024-04-14T04:28:31.551Z,87.07
2024-04-14T04:31:09.531Z,81.68
2024-04-14T04:33:40.414Z,83.90
2024-04-14T04:36:07.842Z,86.22
2024-04-14T04:38:37.519Z,83.93
2024-04-14T04:41:08.651Z,82.45
2024-04-14T04:43:40.253Z,82.53
2024-04-14T04:46:10.164Z,79.40
2024-04-14T04:48:37.639Z,74.03
2024-04-14T04:51:07.598Z,76.68
2024-04-14T04:53:34.654Z,87.13
2024-04-14T04:56:04.023Z,77.05
2024-04-14T04:58:33.631Z,77.80
2024-04-14T05:01:03.333Z,78.60
2024-04-14T05:03:32.505Z,75.53
2024-04-14T05:06:03.612Z,80.50
2024-04-14T05:08:31.313Z,75.47
2024-04-14T05:11:02.213Z,77.90
2024-04-14T05:13:33.987Z,80.40
2024-04-14T05:16:04.392Z,81.15
2024-04-14T05:18:31.491Z,82.22
2024-04-14T05:21:01.199Z,87.47
2024-04-14T05:23:27.992Z,78.78
2024-04-14T05:25:57.492Z,82.88
2024-04-14T05:28:24.305Z,85.15
2024-04-14T05:30:56.623Z,86.60
2024-04-14T05:33:23.611Z,84.80
2024-04-14T05:35:57.729Z,95.75
2024-04-14T05:38:24.806Z,85.72
2024-04-14T05:40:54.481Z,94.43
2024-04-14T05:43:21.506Z,90.53
2024-04-14T05:45:52.736Z,93.88
2024-04-14T05:48:22.750Z,97.30
2024-04-14T05:50:52.279Z,92.82
2024-04-14T05:53:19.470Z,95.40
2024-04-14T05:55:48.937Z,99.40
2024-04-14T05:58:16.317Z,99.43
2024-04-14T06:00:45.865Z,104.38
2024-04-14T06:03:12.820Z,116.40
2024-04-14T06:05:45.180Z,122.50
2024-04-14T06:08:13.550Z,124.32
2024-04-14T06:10:43.209Z,121.20
2024-04-14T06:13:10.512Z,119.18
2024-04-14T06:15:40.350Z,129.27
2024-04-14T06:18:07.826Z,131.00
2024-04-14T06:20:39.023Z,127.07
2024-04-14T06:23:08.592Z,135.30
2024-04-14T06:25:38.036Z,141.90
2024-04-14T06:28:04.997Z,139.65
2024-04-14T06:30:34.396Z,127.20
2024-04-14T06:33:01.416Z,117.70
2024-04-14T06:35:31.007Z,119.80
2024-04-14T06:37:58.047Z,117.85
2024-04-14T06:40:30.016Z,114.28
2024-04-14T06:42:57.367Z,108.88
2024-04-14T06:45:26.825Z,111.57
2024-04-14T06:47:54.183Z,105.47
2024-04-14T06:50:23.741Z,98.53
2024-04-14T06:52:50.502Z,102.82
2024-04-14T06:55:20.614Z,105.38
2024-04-14T06:57:50.060Z,103.30
2024-04-14T07:00:19.952Z,98.68
2024-04-14T07:02:47.095Z,100.35
2024-04-14T07:05:16.794Z,100.05
2024-04-14T07:07:43.584Z,109.35
2024-04-14T07:10:13.877Z,101.82
2024-04-14T07:12:40.697Z,108.72
2024-04-14T07:15:12.911Z,106.03
2024-04-14T07:17:39.975Z,109.43
2024-04-14T07:20:10.741Z,110.75
2024-04-14T07:22:37.838Z,113.70
2024-04-14T07:25:07.694Z,109.28
2024-04-14T07:27:38.376Z,109.50
2024-04-14T07:30:08.430Z,115.00
2024-04-14T07:32:38.182Z,114.47
2024-04-14T07:35:08.119Z,109.97
2024-04-14T07:37:35.004Z,108.55
2024-04-14T07:40:04.535Z,108.13
2024-04-14T07:42:31.404Z,121.13
2024-04-14T07:45:01.061Z,114.10
2024-04-14T07:47:28.814Z,119.63
2024-04-14T07:50:01.423Z,100.65
2024-04-14T07:52:28.285Z,119.32
2024-04-14T07:54:57.818Z,113.20
2024-04-14T07:57:24.602Z,116.60
2024-04-14T07:59:54.313Z,100.57
2024-04-14T08:02:21.265Z,114.32
2024-04-14T08:04:51.028Z,116.90
2024-04-14T08:07:21.679Z,109.68
2024-04-14T08:09:51.182Z,115.03
2024-04-14T08:12:18.226Z,117.63
2024-04-14T08:14:48.154Z,125.43
2024-04-14T08:17:15.590Z,128.32
2024-04-14T08:19:44.931Z,135.70
2024-04-14T08:22:12.036Z,133.85
2024-04-14T08:24:44.061Z,136.75
2024-04-14T08:27:10.919Z,134.82
2024-04-14T08:29:40.526Z,146.18
2024-04-14T08:32:08.002Z,143.73
2024-04-14T08:34:37.638Z,140.40
2024-04-14T08:37:04.769Z,148.43
2024-04-14T08:39:34.401Z,152.13
2024-04-14T08:42:06.493Z,157.00
2024-04-14T08:44:36.736Z,155.98
2024-04-14T08:47:05.711Z,159.95
2024-04-14T08:49:35.723Z,170.40
2024-04-14T08:52:05.950Z,151.77
2024-04-14T08:54:35.948Z,161.50
2024-04-14T08:57:06.844Z,163.45
2024-04-14T08:59:37.378Z,151.73
2024-04-14T09:02:05.186Z,158.25
2024-04-14T09:04:34.934Z,148.98
2024-04-14T09:07:02.465Z,160.18
2024-04-14T09:09:32.000Z,165.63
2024-04-14T09:12:00.190Z,164.50
2024-04-14T09:14:32.240Z,160.57
2024-04-14T09:16:59.188Z,156.70
2024-04-14T09:19:28.840Z,154.98
2024-04-14T09:21:55.885Z,164.63
2024-04-14T09:24:25.266Z,150.88
2024-04-14T09:26:52.058Z,150.50
2024-04-14T09:29:21.699Z,161.52
2024-04-14T09:31:51.072Z,154.30
2024-04-14T09:34:21.249Z,154.20
2024-04-14T09:36:49.960Z,161.95
2024-04-14T09:39:22.529Z,150.25
2024-04-14T09:41:50.229Z,160.40
2024-04-14T09:44:23.368Z,169.52
2024-04-14T09:46:53.568Z,148.48
2024-04-14T09:49:24.946Z,154.52
2024-04-14T09:51:53.839Z,159.75
2024-04-14T09:54:25.549Z,181.30
2024-04-14T09:56:52.626Z,170.32
2024-04-14T09:59:22.110Z,165.35
2024-04-14T10:01:51.649Z,155.55
2024-04-14T10:04:24.833Z,160.68
2024-04-14T10:06:52.489Z,165.93
2024-04-14T10:09:21.878Z,161.05
2024-04-14T10:11:48.872Z,170.02
2024-04-14T10:14:18.502Z,161.45
2024-04-14T10:16:55.729Z,170.90
2024-04-14T10:19:29.199Z,167.95
2024-04-14T10:22:03.241Z,150.23
2024-04-14T10:24:33.902Z,149.02
2024-04-14T10:27:08.049Z,166.35
2024-04-14T10:29:37.444Z,155.50
2024-04-14T10:32:04.700Z,135.25
2024-04-14T10:34:36.811Z,144.48
2024-04-14T10:37:05.487Z,133.23
2024-04-14T10:39:35.175Z,143.38
2024-04-14T10:42:01.988Z,147.70
2024-04-14T10:44:32.462Z,137.70
2024-04-14T10:46:59.354Z,132.48
2024-04-14T10:49:29.089Z,126.47
2024-04-14T10:51:58.463Z,128.65
2024-04-14T10:54:27.824Z,122.18
2024-04-14T10:56:55.060Z,120.03
2024-04-14T10:59:24.481Z,117.90
2024-04-14T11:01:51.576Z,124.18
2024-04-14T11:04:21.143Z,128.82
2024-04-14T11:06:50.314Z,124.32
2024-04-14T11:09:22.531Z,135.35
2024-04-14T11:11:50.095Z,129.00
2024-04-14T11:14:22.804Z,127.82
2024-04-14T11:16:50.484Z,135.10
2024-04-14T11:19:20.178Z,137.43
2024-04-14T11:21:47.303Z,133.70
2024-04-14T11:24:17.013Z,132.30
2024-04-14T11:26:46.524Z,141.48
2024-04-14T11:29:18.129Z,137.25
2024-04-14T11:31:45.157Z,137.48
2024-04-14T11:34:16.295Z,144.10
2024-04-14T11:36:45.239Z,142.38
2024-04-14T11:39:14.997Z,147.65
2024-04-14T11:41:41.866Z,151.45
2024-04-14T11:44:14.876Z,154.60
2024-04-14T11:46:41.780Z,146.00
2024-04-14T11:49:12.136Z,145.25
2024-04-14T11:51:39.236Z,148.05
2024-04-14T11:54:08.599Z,159.57
2024-04-14T11:56:38.224Z,153.50
2024-04-14T11:59:05.016Z,152.10
2024-04-14T12:01:37.733Z,146.00
2024-04-14T12:04:05.005Z,167.52
2024-04-14T12:06:36.263Z,173.13
2024-04-14T12:09:03.090Z,166.48
2024-04-14T12:11:32.884Z,184.40
2024-04-14T12:14:02.309Z,167.73
2024-04-14T12:16:29.254Z,179.60
2024-04-14T12:19:01.738Z,177.95
2024-04-14T12:21:28.626Z,184.38
2024-04-14T12:23:59.648Z,187.55
2024-04-14T12:26:26.413Z,178.80
2024-04-14T12:28:56.853Z,190.63
2024-04-14T12:31:23.712Z,189.00
2024-04-14T12:33:53.583Z,173.68
2024-04-14T12:36:23.575Z,175.75
2024-04-14T12:38:52.934Z,186.45
2024-04-14T12:41:21.737Z,184.25
2024-04-14T12:43:51.276Z,169.10
2024-04-14T12:46:19.776Z,168.02
2024-04-14T12:48:50.655Z,159.48
2024-04-14T12:51:18.993Z,163.73
2024-04-14T12:53:50.965Z,158.80
2024-04-14T12:56:18.020Z,166.85
2024-04-14T12:58:47.369Z,172.45
2024-04-14T13:01:14.193Z,151.43
2024-04-14T13:03:43.802Z,178.82
2024-04-14T13:06:10.601Z,177.90
2024-04-14T13:08:40.131Z,164.25
2024-04-14T13:11:09.845Z,177.63
2024-04-14T13:13:39.590Z,141.50
2024-04-14T13:16:06.935Z,149.32
2024-04-14T13:18:36.644Z,157.30
2024-04-14T13:21:04.814Z,157.98
2024-04-14T13:23:35.918Z,147.82
2024-04-14T13:26:04.083Z,145.75
2024-04-14T13:28:36.336Z,152.77
2024-04-14T13:31:03.187Z,144.35
2024-04-14T13:33:32.934Z,158.82
2024-04-14T13:36:01.797Z,164.90
2024-04-14T13:38:31.226Z,166.70
2024-04-14T13:40:58.302Z,143.25
2024-04-14T13:43:28.839Z,145.82
2024-04-14T13:45:59.513Z,140.98
2024-04-14T13:48:28.989Z,140.95
2024-04-14T13:50:55.949Z,137.85
2024-04-14T13:53:25.401Z,140.70
2024-04-14T13:55:52.176Z,132.73
2024-04-14T13:58:22.687Z,133.02
2024-04-14T14:00:50.145Z,131.82
2024-04-14T14:03:22.321Z,127.72
2024-04-14T14:05:49.088Z,133.70
2024-04-14T14:08:18.682Z,134.80
2024-04-14T14:10:45.518Z,134.23
2024-04-14T14:13:16.018Z,138.05
2024-04-14T14:15:51.224Z,140.40
2024-04-14T14:18:23.460Z,129.48
2024-04-14T14:20:50.266Z,131.38
2024-04-14T14:23:19.626Z,125.68
2024-04-14T14:25:46.937Z,124.32
2024-04-14T14:28:16.574Z,120.43
2024-04-14T14:30:43.707Z,120.43
2024-04-14T14:33:25.586Z,124.25
2024-04-14T14:36:14.490Z,132.00
2024-04-14T14:38:43.914Z,131.40
2024-04-14T14:41:13.790Z,137.90
2024-04-14T14:43:43.229Z,133.88
2024-04-14T14:46:13.002Z,137.43
2024-04-14T14:48:40.585Z,139.55
2024-04-14T14:51:12.952Z,152.35
2024-04-14T14:53:40.211Z,163.80
2024-04-14T14:56:10.947Z,165.65
2024-04-14T14:58:39.111Z,167.40
2024-04-14T15:01:08.619Z,172.13
2024-04-14T15:03:35.676Z,174.55
2024-04-14T15:06:06.355Z,164.93
2024-04-14T15:08:36.864Z,161.80
2024-04-14T15:11:06.390Z,166.95
2024-04-14T15:13:33.486Z,178.35
2024-04-14T15:16:03.909Z,166.98
2024-04-14T15:18:31.719Z,165.77
2024-04-14T15:21:01.936Z,175.25
2024-04-14T15:23:30.290Z,166.27
2024-04-14T15:26:03.682Z,170.32
2024-04-14T15:28:32.413Z,175.82
2024-04-14T15:31:03.852Z,158.93
2024-04-14T15:33:31.049Z,178.10
2024-04-14T15:36:00.513Z,162.75
2024-04-14T15:38:30.304Z,181.68
2024-04-14T15:41:03.101Z,174.27
2024-04-14T15:43:29.864Z,172.05
2024-04-14T15:45:59.309Z,179.23
2024-04-14T15:48:26.482Z,162.27
2024-04-14T15:51:13.791Z,174.15
2024-04-14T15:53:46.755Z,165.27
2024-04-14T15:56:18.714Z,174.55
2024-04-14T15:58:45.749Z,162.25
2024-04-14T16:01:15.191Z,177.63
2024-04-14T16:03:42.437Z,166.85
2024-04-14T16:06:11.954Z,170.27
2024-04-14T16:08:39.177Z,182.20
2024-04-14T16:11:10.541Z,182.50
2024-04-14T16:13:40.103Z,165.02
2024-04-14T16:16:14.130Z,171.57
2024-04-14T16:18:43.824Z,171.27
2024-04-14T16:21:13.223Z,168.63
2024-04-14T16:23:41.622Z,174.88
2024-04-14T16:26:11.366Z,177.88
2024-04-14T16:28:41.227Z,173.10
2024-04-14T16:31:11.007Z,172.98
2024-04-14T16:33:38.111Z,164.45
2024-04-14T16:36:08.412Z,173.35
2024-04-14T16:38:35.727Z,164.70
2024-04-14T16:41:05.622Z,157.00
2024-04-14T16:43:32.408Z,144.35
2024-04-14T16:46:04.445Z,138.02
2024-04-14T16:48:31.599Z,135.48
2024-04-14T16:51:01.102Z,154.35
2024-04-14T16:53:28.583Z,159.60
2024-04-14T16:55:58.036Z,164.82
2024-04-14T16:58:24.837Z,139.48
2024-04-14T17:00:54.294Z,156.68
2024-04-14T17:03:24.948Z,133.18
2024-04-14T17:05:54.483Z,116.53
2024-04-14T17:08:21.542Z,117.93
2024-04-14T17:10:51.134Z,110.40
2024-04-14T17:13:19.740Z,104.95
2024-04-14T17:15:51.400Z,103.70
2024-04-14T17:18:18.264Z,102.65
2024-04-14T17:20:50.812Z,100.05
2024-04-14T17:23:17.693Z,101.63
2024-04-14T17:25:47.629Z,95.88
2024-04-14T17:28:14.448Z,90.18
2024-04-14T17:30:44.190Z,91.22
2024-04-14T17:33:11.059Z,97.18
2024-04-14T17:35:40.556Z,94.75
2024-04-14T17:38:09.928Z,98.25
2024-04-14T17:40:39.272Z,102.82
2024-04-14T17:43:06.481Z,91.95
2024-04-14T17:45:36.345Z,91.90
2024-04-14T17:48:04.411Z,92.05
2024-04-14T17:50:34.063Z,89.43
2024-04-14T17:53:01.087Z,99.10
2024-04-14T17:55:33.755Z,94.97
2024-04-14T17:58:01.100Z,94.05
2024-04-14T18:00:30.713Z,95.93
2024-04-14T18:02:58.212Z,109.57
2024-04-14T18:05:27.694Z,114.53
2024-04-14T18:07:54.795Z,110.35
2024-04-14T18:10:25.281Z,115.63
2024-04-14T18:12:54.869Z,121.22
2024-04-14T18:15:24.244Z,119.30
2024-04-14T18:17:51.087Z,115.95
2024-04-14T18:20:20.919Z,114.95
2024-04-14T18:22:47.730Z,111.13
2024-04-14T18:25:17.269Z,103.07
2024-04-14T18:27:44.179Z,93.28
2024-04-14T18:30:16.592Z,81.13
2024-04-14T18:32:44.635Z,68.13
2024-04-14T18:35:14.215Z,62.17
2024-04-14T18:37:41.112Z,58.13
2024-04-14T18:40:11.564Z,61.50
2024-04-14T18:42:38.471Z,56.38
2024-04-14T18:45:08.628Z,57.45
2024-04-14T18:47:38.403Z,59.75
2024-04-14T18:50:08.388Z,55.67
2024-04-14T18:52:36.251Z,59.78
2024-04-14T18:55:06.410Z,59.63
2024-04-14T18:57:33.802Z,57.72
2024-04-14T19:00:04.299Z,69.28
2024-04-14T19:02:31.592Z,70.45
2024-04-14T19:05:03.897Z,77.50
2024-04-14T19:07:31.125Z,78.63
2024-04-14T19:10:01.175Z,83.07
2024-04-14T19:12:28.200Z,88.32
2024-04-14T19:14:57.827Z,92.38
2024-04-14T19:17:26.590Z,94.38
2024-04-14T19:19:56.893Z,99.47
2024-04-14T19:22:26.264Z,100.82
2024-04-14T19:24:56.023Z,99.55
2024-04-14T19:27:22.820Z,97.55
2024-04-14T19:29:52.174Z,107.88
2024-04-14T19:32:19.299Z,104.07
2024-04-14T19:34:48.706Z,107.65
2024-04-14T19:37:15.691Z,110.70
2024-04-14T19:39:49.268Z,114.85
2024-04-14T19:42:16.311Z,109.28
2024-04-14T19:44:45.676Z,109.18
2024-04-14T19:47:12.522Z,113.82
2024-04-14T19:49:41.963Z,117.10
2024-04-14T19:52:09.066Z,112.28
2024-04-14T19:54:38.699Z,114.00
2024-04-14T19:57:08.098Z,114.22
2024-04-14T19:59:37.533Z,121.50
2024-04-14T20:02:04.984Z,118.40
2024-04-14T20:04:34.562Z,124.63
2024-04-14T20:07:01.695Z,123.50
2024-04-14T20:09:32.409Z,119.97
2024-04-14T20:11:59.210Z,120.53
2024-04-14T20:14:31.456Z,119.63
2024-04-14T20:16:58.236Z,113.72
2024-04-14T20:19:28.630Z,114.63
2024-04-14T20:21:55.514Z,109.22
2024-04-14T20:24:25.009Z,118.10
2024-04-14T20:26:51.824Z,120.57
2024-04-14T20:29:21.626Z,122.22
2024-04-14T20:31:51.060Z,115.10
2024-04-14T20:34:20.446Z,118.88
2024-04-14T20:36:47.476Z,116.45
2024-04-14T20:39:16.954Z,111.32
2024-04-14T20:41:43.991Z,113.35
2024-04-14T20:44:15.892Z,109.28
2024-04-14T20:46:42.923Z,115.82
2024-04-14T20:49:17.054Z,125.05
2024-04-14T20:51:44.480Z,124.18
2024-04-14T20:54:13.879Z,121.05
2024-04-14T20:56:40.664Z,121.93
2024-04-14T20:59:10.607Z,127.05
2024-04-14T21:01:37.443Z,125.22
2024-04-14T21:04:07.182Z,124.65
2024-04-14T21:06:40.679Z,120.30
2024-04-14T21:09:07.724Z,123.13
2024-04-14T21:11:37.170Z,120.13
2024-04-14T21:14:04.354Z,119.55
2024-04-14T21:16:33.732Z,109.35
2024-04-14T21:19:00.577Z,122.10
2024-04-14T21:21:30.393Z,114.53
2024-04-14T21:23:59.791Z,114.80
2024-04-14T21:26:29.430Z,111.60
2024-04-14T21:28:56.206Z,116.28
2024-04-14T21:31:25.721Z,119.15
2024-04-14T21:33:52.564Z,125.88
2024-04-14T21:36:22.801Z,121.13
2024-04-14T21:38:49.565Z,131.40
2024-04-14T21:41:24.619Z,116.40
2024-04-14T21:43:51.436Z,109.05
2024-04-14T21:46:20.852Z,113.03
2024-04-14T21:48:47.917Z,116.18
2024-04-14T21:51:17.314Z,110.28
2024-04-14T21:53:44.608Z,94.75
2024-04-14T21:56:14.039Z,104.82
2024-04-14T21:58:43.590Z,100.65
2024-04-14T22:01:17.187Z,101.65
2024-04-14T22:03:45.434Z,100.30
2024-04-14T22:06:15.190Z,104.10
2024-04-14T22:08:42.520Z,109.68
2024-04-14T22:11:12.693Z,100.53
2024-04-14T22:13:39.887Z,93.20
2024-04-14T22:16:12.640Z,92.70
2024-04-14T22:18:39.587Z,96.32
2024-04-14T22:21:09.025Z,94.55
2024-04-14T22:23:35.869Z,92.55
2024-04-14T22:26:05.775Z,92.25
2024-04-14T22:28:32.588Z,92.78
2024-04-14T22:31:02.361Z,83.25
2024-04-14T22:33:31.739Z,81.88
2024-04-14T22:36:01.093Z,85.57
2024-04-14T22:38:28.099Z,85.88
2024-04-14T22:40:57.495Z,82.10
2024-04-14T22:43:24.341Z,88.63
2024-04-14T22:45:53.788Z,87.97
2024-04-14T22:48:20.999Z,88.15
2024-04-14T22:50:53.001Z,89.65
2024-04-14T22:53:20.249Z,94.32
2024-04-14T22:55:49.774Z,93.50
2024-04-14T22:58:17.054Z,100.68
2024-04-14T23:00:47.039Z,94.38
2024-04-14T23:03:13.962Z,91.28
2024-04-14T23:05:43.608Z,97.60
2024-04-14T23:08:13.398Z,93.07
2024-04-14T23:10:43.383Z,91.88
2024-04-14T23:13:10.370Z,82.38
2024-04-14T23:15:40.202Z,82.78
2024-04-14T23:18:07.270Z,84.03
2024-04-14T23:20:36.785Z,86.13
2024-04-14T23:23:04.192Z,86.85
2024-04-14T23:25:36.135Z,84.97
2024-04-14T23:28:03.333Z,81.22
2024-04-14T23:30:32.704Z,81.05
2024-04-14T23:32:59.508Z,86.97
2024-04-14T23:35:29.176Z,79.80
2024-04-14T23:37:55.937Z,77.00
2024-04-14T23:40:26.014Z,78.40
2024-04-14T23:42:55.416Z,78.25
2024-04-14T23:45:25.078Z,81.55
2024-04-14T23:47:51.985Z,78.43
2024-04-14T23:50:21.813Z,75.03
2024-04-14T23:52:49.911Z,79.03
2024-04-14T23:55:20.091Z,82.97
2024-04-14T23:57:47.016Z,88.10
